Time;durP1;ratioP1;P1;durP2;ratioP2;P2;SDS_P1;SDS_P2;PMS_P1;PMS_P2;Temp;Humidity;BMP_temperature;BMP_pressure;BME280_temperature;BME280_humidity;BME280_pressure;Samples;Min_cycle;Max_cycle;Signal;HPM_P1;HPM_P2
2022/03/12 00:01:00;;;;;;;20.60;9.63;;;;;;;;;;4403858;32;20259;-50
2022/03/12 00:03:26;;;;;;;18.70;10.13;;;;;;;;;;4418913;32;20268;-49
2022/03/12 00:05:59;;;;;;;14.47;8.50;;;;;;;;;;4404229;32;20319;-49
2022/03/12 00:08:34;;;;;;;22.57;10.23;;;;;;;;;;4418869;32;20221;-49
2022/03/12 00:11:00;;;;;;;10.90;8.27;;;;;;;;;;4417664;32;20254;-50
2022/03/12 00:13:25;;;;;;;17.77;8.57;;;;;;;;;;4418397;32;20261;-50
2022/03/12 00:15:51;;;;;;;15.77;10.00;;;;;;;;;;4417145;32;20361;-50
2022/03/12 00:18:19;;;;;;;18.53;9.30;;;;;;;;;;4412154;32;20290;-50
2022/03/12 00:20:48;;;;;;;19.57;10.53;;;;;;;;;;4403680;32;20617;-48
2022/03/12 00:23:20;;;;;;;14.10;9.50;;;;;;;;;;4416878;32;20225;-49
2022/03/12 00:25:48;;;;;;;17.73;9.43;;;;;;;;;;4404698;32;20279;-49
2022/03/12 00:28:18;;;;;;;16.73;8.20;;;;;;;;;;4407648;32;20253;-49
2022/03/12 00:30:51;;;;;;;17.83;9.00;;;;;;;;;;4417359;32;20585;-50
2022/03/12 00:33:18;;;;;;;11.90;9.07;;;;;;;;;;4417498;32;20641;-49
2022/03/12 00:35:47;;;;;;;15.07;8.57;;;;;;;;;;4417160;32;20294;-51
2022/03/12 00:38:14;;;;;;;12.40;8.10;;;;;;;;;;4398111;32;20243;-49
2022/03/12 00:40:39;;;;;;;18.77;9.27;;;;;;;;;;4411506;32;20210;-49
2022/03/12 00:43:05;;;;;;;11.83;8.20;;;;;;;;;;4407998;32;20257;-49
2022/03/12 00:45:30;;;;;;;12.97;7.80;;;;;;;;;;4402139;32;20877;-50
2022/03/12 00:47:56;;;;;;;16.13;8.57;;;;;;;;;;4410241;32;20279;-51
2022/03/12 00:50:21;;;;;;;11.27;7.33;;;;;;;;;;4417693;32;20656;-50
2022/03/12 00:52:47;;;;;;;12.57;7.30;;;;;;;;;;4409466;32;20221;-49
2022/03/12 00:55:12;;;;;;;13.60;8.10;;;;;;;;;;4404428;32;20463;-50
2022/03/12 00:57:38;;;;;;;18.17;9.10;;;;;;;;;;4416912;32;20247;-51
2022/03/12 01:00:11;;;;;;;21.43;11.13;;;;;;;;;;4417005;32;20318;-49
2022/03/12 01:02:37;;;;;;;13.40;8.80;;;;;;;;;;4416696;32;20659;-50
2022/03/12 01:05:03;;;;;;;13.40;8.10;;;;;;;;;;4402772;32;20316;-51
2022/03/12 01:07:28;;;;;;;17.30;9.40;;;;;;;;;;4417153;32;20217;-50
2022/03/12 01:09:54;;;;;;;16.30;10.27;;;;;;;;;;4417069;32;20661;-51
2022/03/12 01:12:19;;;;;;;17.57;11.30;;;;;;;;;;4415896;32;20253;-50
2022/03/12 01:14:45;;;;;;;19.23;12.33;;;;;;;;;;4416258;32;20606;-50
2022/03/12 01:17:11;;;;;;;20.73;11.83;;;;;;;;;;4416750;32;20307;-50
2022/03/12 01:19:38;;;;;;;23.23;11.50;;;;;;;;;;4408254;32;20432;-50
2022/03/12 01:22:05;;;;;;;16.90;8.83;;;;;;;;;;4416525;32;20256;-52
2022/03/12 01:24:31;;;;;;;15.10;9.73;;;;;;;;;;4416438;32;20236;-51
2022/03/12 01:26:57;;;;;;;15.30;10.10;;;;;;;;;;4414211;32;20597;-50
2022/03/12 01:29:23;;;;;;;18.23;10.23;;;;;;;;;;4412867;32;20625;-51
2022/03/12 01:31:49;;;;;;;22.30;10.57;;;;;;;;;;4414603;32;20251;-50
2022/03/12 01:34:15;;;;;;;18.30;10.30;;;;;;;;;;4401670;32;20414;-51
2022/03/12 01:36:40;;;;;;;15.37;10.57;;;;;;;;;;4403094;32;20314;-51
2022/03/12 01:39:06;;;;;;;14.37;9.30;;;;;;;;;;4416101;32;20396;-50
2022/03/12 01:41:33;;;;;;;15.33;8.53;;;;;;;;;;4416554;32;20667;-50
2022/03/12 01:44:00;;;;;;;17.23;8.53;;;;;;;;;;4416406;32;20206;-51
2022/03/12 01:46:41;;;;;;;16.03;10.97;;;;;;;;;;4416051;32;20272;-50
2022/03/12 01:49:11;;;;;;;17.53;9.90;;;;;;;;;;4417185;32;20215;-50
2022/03/12 01:51:37;;;;;;;21.53;10.97;;;;;;;;;;4402835;32;20248;-49
2022/03/12 01:54:04;;;;;;;20.27;11.57;;;;;;;;;;4416253;32;20340;-49
2022/03/12 01:56:30;;;;;;;22.53;10.83;;;;;;;;;;4415638;32;20205;-49
2022/03/12 01:58:59;;;;;;;22.33;12.10;;;;;;;;;;4416198;32;20272;-50
2022/03/12 02:01:27;;;;;;;20.00;11.00;;;;;;;;;;4416540;32;20577;-50
2022/03/12 02:03:53;;;;;;;25.80;12.57;;;;;;;;;;4416205;32;20257;-50
2022/03/12 02:06:21;;;;;;;19.93;11.77;;;;;;;;;;4416034;32;20239;-50
2022/03/12 02:08:49;;;;;;;19.00;11.30;;;;;;;;;;4419449;32;20632;-51
2022/03/12 02:11:27;;;;;;;17.93;8.60;;;;;;;;;;4419535;32;20671;-51
2022/03/12 02:14:13;;;;;;;11.80;8.37;;;;;;;;;;4419111;32;20668;-51
2022/03/12 02:16:52;;;;;;;13.07;8.47;;;;;;;;;;4418288;32;20346;-51
2022/03/12 02:19:19;;;;;;;15.10;8.30;;;;;;;;;;4412907;32;20213;-51
2022/03/12 02:21:55;;;;;;;13.07;8.17;;;;;;;;;;4404184;32;20288;-50
2022/03/12 02:24:23;;;;;;;13.50;8.33;;;;;;;;;;4412042;32;20260;-50
2022/03/12 02:26:49;;;;;;;12.87;7.87;;;;;;;;;;4403527;32;20257;-50
2022/03/12 02:29:20;;;;;;;14.90;8.23;;;;;;;;;;4414224;32;20363;-52
2022/03/12 02:31:51;;;;;;;18.13;9.73;;;;;;;;;;4418437;32;20217;-50
2022/03/12 02:34:23;;;;;;;13.63;8.27;;;;;;;;;;4408214;32;20225;-50
2022/03/12 02:36:51;;;;;;;14.73;9.63;;;;;;;;;;4418960;32;20271;-51
2022/03/12 02:39:17;;;;;;;22.40;11.17;;;;;;;;;;4419539;32;20218;-51
2022/03/12 02:41:43;;;;;;;16.60;7.93;;;;;;;;;;4418885;32;20248;-50
2022/03/12 02:44:17;;;;;;;10.53;7.60;;;;;;;;;;4418670;32;20711;-50
2022/03/12 02:46:43;;;;;;;16.17;8.33;;;;;;;;;;4418339;32;20607;-50
2022/03/12 02:49:08;;;;;;;19.00;10.40;;;;;;;;;;4403517;32;20709;-51
2022/03/12 02:51:34;;;;;;;19.20;10.60;;;;;;;;;;4403909;32;20272;-50
2022/03/12 02:54:00;;;;;;;18.77;10.60;;;;;;;;;;4410546;32;20588;-51
2022/03/12 02:56:29;;;;;;;15.53;9.80;;;;;;;;;;4418806;32;20198;-50
2022/03/12 02:58:54;;;;;;;13.83;7.90;;;;;;;;;;4404434;32;20300;-51
2022/03/12 03:01:22;;;;;;;10.87;7.87;;;;;;;;;;4419064;32;20694;-50
2022/03/12 03:03:47;;;;;;;17.57;8.67;;;;;;;;;;4418421;32;20228;-50
2022/03/12 03:06:14;;;;;;;12.03;7.03;;;;;;;;;;4405019;32;20303;-49
2022/03/12 03:08:40;;;;;;;10.33;7.10;;;;;;;;;;4413294;32;20335;-51
2022/03/12 03:11:16;;;;;;;13.90;7.97;;;;;;;;;;4392093;32;20300;-51
2022/03/12 03:13:44;;;;;;;13.03;7.97;;;;;;;;;;4414514;32;20259;-50
2022/03/12 03:16:22;;;;;;;14.00;7.90;;;;;;;;;;4417484;32;20668;-52
2022/03/12 03:18:53;;;;;;;22.13;9.90;;;;;;;;;;4413253;32;20226;-50
2022/03/12 03:21:26;;;;;;;21.80;10.03;;;;;;;;;;4402913;32;20280;-51
2022/03/12 03:23:53;;;;;;;11.97;7.83;;;;;;;;;;4410794;32;20351;-49
2022/03/12 03:26:33;;;;;;;12.97;7.80;;;;;;;;;;4404902;32;20228;-49
2022/03/12 03:29:00;;;;;;;12.77;7.27;;;;;;;;;;4413486;32;20334;-51
2022/03/12 03:31:26;;;;;;;15.63;8.60;;;;;;;;;;4404745;32;20631;-51
2022/03/12 03:33:51;;;;;;;20.33;9.43;;;;;;;;;;4415063;32;20304;-51
2022/03/12 03:36:17;;;;;;;14.07;9.57;;;;;;;;;;4389838;32;20210;-50
2022/03/12 03:38:42;;;;;;;15.43;9.57;;;;;;;;;;4402768;32;20303;-52
2022/03/12 03:41:07;;;;;;;11.43;8.07;;;;;;;;;;4410154;32;20220;-50
2022/03/12 03:43:33;;;;;;;11.33;8.30;;;;;;;;;;4417297;32;20237;-52
2022/03/12 03:45:58;;;;;;;12.60;8.33;;;;;;;;;;4417613;32;20314;-50
2022/03/12 03:48:24;;;;;;;10.07;6.53;;;;;;;;;;4418900;32;20268;-49
2022/03/12 03:50:52;;;;;;;9.30;7.10;;;;;;;;;;4416615;32;20312;-50
2022/03/12 03:53:24;;;;;;;12.57;7.80;;;;;;;;;;4405000;32;20290;-50
2022/03/12 03:55:54;;;;;;;18.30;10.93;;;;;;;;;;4404190;32;20217;-49
2022/03/12 03:58:20;;;;;;;24.43;11.53;;;;;;;;;;4418598;32;20252;-50
2022/03/12 04:00:57;;;;;;;21.93;12.20;;;;;;;;;;4416769;32;21963;-51
2022/03/12 04:03:24;;;;;;;15.10;9.40;;;;;;;;;;4418729;32;20239;-50
2022/03/12 04:05:50;;;;;;;15.37;10.43;;;;;;;;;;4418199;32;20220;-51
2022/03/12 04:08:16;;;;;;;26.00;12.50;;;;;;;;;;4396488;32;20244;-49
2022/03/12 04:10:42;;;;;;;23.03;12.03;;;;;;;;;;4417131;32;20341;-50
2022/03/12 04:13:16;;;;;;;22.73;12.07;;;;;;;;;;4418043;32;20255;-51
2022/03/12 04:15:41;;;;;;;19.57;12.40;;;;;;;;;;4417908;32;20374;-50
2022/03/12 04:18:08;;;;;;;25.97;13.00;;;;;;;;;;4403915;32;20217;-50
2022/03/12 04:20:34;;;;;;;20.13;10.37;;;;;;;;;;4410773;32;20201;-51
2022/03/12 04:23:01;;;;;;;16.67;9.83;;;;;;;;;;4417864;32;20600;-50
2022/03/12 04:25:31;;;;;;;18.47;11.60;;;;;;;;;;4407155;32;20244;-52
2022/03/12 04:27:56;;;;;;;32.27;11.37;;;;;;;;;;4405032;32;20939;-51
2022/03/12 04:30:22;;;;;;;17.17;10.20;;;;;;;;;;4417338;32;20261;-52
2022/03/12 04:32:48;;;;;;;18.93;10.47;;;;;;;;;;4403960;32;20744;-51
2022/03/12 04:35:15;;;;;;;18.67;12.70;;;;;;;;;;4417614;32;20310;-51
2022/03/12 04:37:41;;;;;;;27.57;15.33;;;;;;;;;;4417830;32;20383;-50
2022/03/12 04:40:10;;;;;;;34.27;17.50;;;;;;;;;;4416883;32;20694;-50
2022/03/12 04:42:42;;;;;;;34.40;19.27;;;;;;;;;;4408650;32;20241;-51
2022/03/12 04:45:10;;;;;;;23.50;12.60;;;;;;;;;;4402471;32;20227;-49
2022/03/12 04:47:36;;;;;;;15.00;10.30;;;;;;;;;;4410969;32;20263;-49
2022/03/12 04:50:04;;;;;;;22.43;13.83;;;;;;;;;;4417567;32;20293;-48
2022/03/12 04:52:30;;;;;;;14.87;10.23;;;;;;;;;;4403678;32;20324;-50
2022/03/12 04:54:56;;;;;;;27.17;14.30;;;;;;;;;;4417130;32;20355;-50
2022/03/12 04:57:22;;;;;;;25.93;14.90;;;;;;;;;;4402994;32;20360;-50
2022/03/12 04:59:47;;;;;;;26.27;14.70;;;;;;;;;;4417127;32;20352;-51
2022/03/12 05:02:13;;;;;;;17.17;9.77;;;;;;;;;;4417249;32;20629;-50
2022/03/12 05:04:39;;;;;;;17.77;10.93;;;;;;;;;;4417096;32;20288;-50
2022/03/12 05:07:09;;;;;;;15.43;8.97;;;;;;;;;;4417360;32;20229;-50
2022/03/12 05:09:34;;;;;;;19.07;12.27;;;;;;;;;;4416896;32;20275;-50
2022/03/12 05:12:05;;;;;;;23.20;15.37;;;;;;;;;;4417120;32;20260;-48
2022/03/12 05:14:35;;;;;;;22.57;11.23;;;;;;;;;;4402961;32;20243;-50
2022/03/12 05:17:08;;;;;;;46.97;20.57;;;;;;;;;;4416571;32;20663;-51
2022/03/12 05:19:36;;;;;;;98.70;33.60;;;;;;;;;;4394731;32;20425;-52
2022/03/12 05:22:03;;;;;;;95.67;35.90;;;;;;;;;;4387504;32;20300;-49
2022/03/12 05:24:29;;;;;;;63.00;25.77;;;;;;;;;;4411510;32;20245;-50
2022/03/12 05:26:54;;;;;;;48.40;23.67;;;;;;;;;;4405324;32;20237;-49
2022/03/12 05:29:21;;;;;;;23.47;11.37;;;;;;;;;;4417246;32;20268;-52
2022/03/12 05:31:47;;;;;;;13.23;9.13;;;;;;;;;;4406538;32;20256;-49
2022/03/12 05:34:12;;;;;;;32.80;18.47;;;;;;;;;;4401583;32;20332;-50
2022/03/12 05:36:37;;;;;;;22.43;13.80;;;;;;;;;;4414366;32;20378;-50
2022/03/12 05:39:03;;;;;;;18.67;12.03;;;;;;;;;;4417119;32;20264;-50
2022/03/12 05:41:29;;;;;;;43.90;19.30;;;;;;;;;;4416609;32;20670;-50
2022/03/12 05:43:56;;;;;;;42.33;17.77;;;;;;;;;;4416095;32;20355;-51
2022/03/12 05:46:21;;;;;;;27.83;13.83;;;;;;;;;;4415553;32;20281;-49
2022/03/12 05:48:47;;;;;;;22.00;12.33;;;;;;;;;;4403010;32;20312;-51
2022/03/12 05:51:13;;;;;;;41.00;17.87;;;;;;;;;;4409799;32;20614;-51
2022/03/12 05:53:39;;;;;;;41.93;17.23;;;;;;;;;;4402603;32;20288;-51
2022/03/12 05:56:05;;;;;;;59.50;24.17;;;;;;;;;;4416264;32;20757;-49
2022/03/12 05:58:38;;;;;;;25.87;13.47;;;;;;;;;;4416745;32;20706;-49
2022/03/12 06:01:04;;;;;;;31.97;12.07;;;;;;;;;;4416428;32;20205;-51
2022/03/12 06:03:30;;;;;;;58.63;22.23;;;;;;;;;;4416674;32;21075;-49
2022/03/12 06:05:58;;;;;;;18.37;10.70;;;;;;;;;;4410445;32;20230;-49
2022/03/12 06:08:25;;;;;;;24.57;11.17;;;;;;;;;;4401617;32;20279;-51
2022/03/12 06:10:52;;;;;;;20.10;11.03;;;;;;;;;;4401189;32;20573;-49
2022/03/12 06:13:18;;;;;;;13.67;7.73;;;;;;;;;;4402184;32;20304;-49
2022/03/12 06:15:51;;;;;;;13.63;9.20;;;;;;;;;;4415893;32;20309;-49
2022/03/12 06:18:17;;;;;;;15.90;9.47;;;;;;;;;;4415958;32;20213;-49
2022/03/12 06:20:42;;;;;;;10.53;7.13;;;;;;;;;;4400627;32;20322;-51
2022/03/12 06:23:08;;;;;;;11.70;7.43;;;;;;;;;;4404876;32;20240;-49
2022/03/12 06:25:34;;;;;;;9.67;7.30;;;;;;;;;;4407481;32;20339;-49
2022/03/12 06:28:02;;;;;;;8.70;5.50;;;;;;;;;;4414864;32;20221;-50
2022/03/12 06:30:28;;;;;;;9.93;6.60;;;;;;;;;;4412155;32;20552;-51
2022/03/12 06:32:56;;;;;;;9.30;6.30;;;;;;;;;;4408750;32;20288;-50
2022/03/12 06:35:23;;;;;;;17.77;6.47;;;;;;;;;;4414738;32;20679;-50
2022/03/12 06:37:48;;;;;;;15.43;7.77;;;;;;;;;;4410407;32;20240;-49
2022/03/12 06:40:15;;;;;;;18.37;8.57;;;;;;;;;;4415752;32;20280;-52
2022/03/12 06:42:54;;;;;;;10.57;6.23;;;;;;;;;;4390442;32;20244;-50
2022/03/12 06:45:20;;;;;;;11.23;7.27;;;;;;;;;;4415193;32;20240;-50
2022/03/12 06:47:46;;;;;;;14.23;8.67;;;;;;;;;;4406264;32;20226;-50
2022/03/12 06:50:20;;;;;;;16.57;8.50;;;;;;;;;;4402033;32;20370;-50
2022/03/12 06:52:48;;;;;;;14.93;7.27;;;;;;;;;;4417460;32;20239;-50
2022/03/12 06:55:15;;;;;;;19.80;8.33;;;;;;;;;;4404659;32;20314;-49
2022/03/12 06:57:41;;;;;;;15.67;9.37;;;;;;;;;;4418850;32;20251;-49
2022/03/12 07:00:12;;;;;;;14.53;6.07;;;;;;;;;;4404641;32;20226;-49
2022/03/12 07:02:38;;;;;;;22.17;8.50;;;;;;;;;;4417883;32;20301;-50
2022/03/12 07:05:04;;;;;;;15.17;8.33;;;;;;;;;;4396570;32;20304;-50
2022/03/12 07:07:30;;;;;;;12.53;7.73;;;;;;;;;;4404067;32;20319;-51
2022/03/12 07:09:55;;;;;;;15.57;7.40;;;;;;;;;;4419126;32;20277;-49
2022/03/12 07:12:21;;;;;;;37.10;19.60;;;;;;;;;;4419284;32;20448;-49
2022/03/12 07:14:47;;;;;;;41.47;17.37;;;;;;;;;;4416649;32;20751;-51
2022/03/12 07:17:12;;;;;;;9.87;7.37;;;;;;;;;;4417619;32;20225;-52
2022/03/12 07:19:37;;;;;;;18.87;10.00;;;;;;;;;;4395563;32;20622;-50
2022/03/12 07:22:03;;;;;;;28.63;16.20;;;;;;;;;;4415385;32;20343;-50
2022/03/12 07:24:29;;;;;;;33.83;18.20;;;;;;;;;;4418330;32;20303;-50
2022/03/12 07:26:54;;;;;;;21.20;10.23;;;;;;;;;;4416540;32;20368;-50
2022/03/12 07:29:20;;;;;;;34.00;15.43;;;;;;;;;;4419059;32;20698;-50
2022/03/12 07:31:45;;;;;;;24.93;12.63;;;;;;;;;;4418317;32;20301;-51
2022/03/12 07:34:11;;;;;;;36.23;17.27;;;;;;;;;;4418558;32;20312;-50
2022/03/12 07:36:36;;;;;;;31.07;19.23;;;;;;;;;;4411805;32;20276;-48
2022/03/12 07:39:03;;;;;;;33.90;18.60;;;;;;;;;;4414086;32;20294;-50
2022/03/12 07:41:30;;;;;;;45.50;22.93;;;;;;;;;;4403176;32;20631;-49
2022/03/12 07:43:55;;;;;;;41.97;22.10;;;;;;;;;;4418296;32;20590;-49
2022/03/12 07:46:21;;;;;;;31.07;16.27;;;;;;;;;;4418532;32;20222;-50
2022/03/12 07:48:48;;;;;;;14.20;8.67;;;;;;;;;;4418551;32;20569;-49
2022/03/12 07:51:13;;;;;;;15.67;9.27;;;;;;;;;;4418776;32;20284;-49
2022/03/12 07:53:42;;;;;;;8.33;6.70;;;;;;;;;;4419375;32;20299;-51
2022/03/12 07:56:08;;;;;;;19.20;8.20;;;;;;;;;;4419247;32;20218;-51
2022/03/12 07:58:35;;;;;;;10.37;6.10;;;;;;;;;;4417291;32;20319;-50
2022/03/12 08:01:03;;;;;;;11.00;5.70;;;;;;;;;;4418194;32;20221;-50
2022/03/12 08:03:29;;;;;;;18.73;7.97;;;;;;;;;;4419056;32;20225;-51
2022/03/12 08:05:55;;;;;;;16.10;5.80;;;;;;;;;;4417529;32;20785;-49
2022/03/12 08:08:20;;;;;;;21.00;10.47;;;;;;;;;;4418231;32;20217;-49
2022/03/12 08:13:30;;;;;;;13.60;7.10;;;;;;;;;;4415712;32;20730;-49
2022/03/12 08:15:58;;;;;;;14.60;8.13;;;;;;;;;;4416126;32;20729;-49
2022/03/12 08:18:24;;;;;;;9.67;6.43;;;;;;;;;;4416188;32;20268;-50
2022/03/12 08:20:52;;;;;;;13.13;6.93;;;;;;;;;;4402394;32;20876;-50
2022/03/12 08:23:17;;;;;;;14.93;9.40;;;;;;;;;;4409231;32;20295;-49
2022/03/12 08:25:43;;;;;;;14.40;8.13;;;;;;;;;;4418151;32;20318;-51
2022/03/12 08:28:09;;;;;;;10.60;5.67;;;;;;;;;;4416372;32;20229;-50
2022/03/12 08:30:37;;;;;;;17.23;10.83;;;;;;;;;;4417492;32;20277;-50
2022/03/12 08:33:03;;;;;;;17.50;7.80;;;;;;;;;;4416597;32;20352;-50
2022/03/12 08:35:29;;;;;;;18.63;6.70;;;;;;;;;;4417313;32;20201;-50
2022/03/12 08:37:55;;;;;;;16.80;9.97;;;;;;;;;;4416893;32;20264;-49
2022/03/12 08:40:21;;;;;;;122.60;57.60;;;;;;;;;;4402589;32;20319;-50
2022/03/12 08:42:46;;;;;;;40.83;20.50;;;;;;;;;;4417757;32;20255;-52
2022/03/12 08:45:12;;;;;;;16.70;9.00;;;;;;;;;;4416225;32;20225;-50
2022/03/12 08:47:40;;;;;;;12.67;7.87;;;;;;;;;;4417171;32;20228;-50
2022/03/12 08:50:08;;;;;;;17.90;10.67;;;;;;;;;;4416245;32;20273;-49
2022/03/12 08:52:38;;;;;;;10.87;6.93;;;;;;;;;;4415990;32;20261;-50
2022/03/12 08:55:06;;;;;;;17.87;9.47;;;;;;;;;;4397911;32;20273;-50
2022/03/12 08:57:33;;;;;;;33.13;17.00;;;;;;;;;;4403063;32;20611;-48
2022/03/12 09:00:00;;;;;;;26.17;16.60;;;;;;;;;;4414924;32;20364;-50
2022/03/12 09:02:25;;;;;;;22.17;12.73;;;;;;;;;;4416635;32;20628;-49
2022/03/12 09:04:54;;;;;;;17.13;9.70;;;;;;;;;;4416703;32;20422;-51
2022/03/12 09:07:20;;;;;;;22.00;12.43;;;;;;;;;;4416648;32;20283;-51
2022/03/12 09:09:47;;;;;;;11.57;7.17;;;;;;;;;;4415663;32;20224;-51
2022/03/12 09:12:14;;;;;;;25.47;15.20;;;;;;;;;;4415853;32;20259;-51
2022/03/12 09:14:40;;;;;;;15.00;9.23;;;;;;;;;;4402518;32;20309;-51
2022/03/12 09:17:06;;;;;;;15.60;6.77;;;;;;;;;;4415056;32;20311;-50
2022/03/12 09:19:34;;;;;;;14.83;8.60;;;;;;;;;;4401586;32;20751;-50
2022/03/12 09:22:02;;;;;;;21.23;9.40;;;;;;;;;;4403030;32;20271;-49
2022/03/12 09:24:28;;;;;;;16.60;9.37;;;;;;;;;;4414494;32;20221;-50
2022/03/12 09:26:53;;;;;;;20.37;10.30;;;;;;;;;;4402793;32;20268;-49
2022/03/12 09:29:19;;;;;;;14.10;8.90;;;;;;;;;;4413271;32;20273;-51
2022/03/12 09:31:45;;;;;;;14.30;10.20;;;;;;;;;;4416087;32;20621;-50
2022/03/12 09:34:10;;;;;;;17.23;10.87;;;;;;;;;;4415303;32;20378;-51
2022/03/12 09:36:36;;;;;;;18.97;10.60;;;;;;;;;;4391138;32;20674;-50
2022/03/12 09:39:04;;;;;;;15.30;8.53;;;;;;;;;;4416309;32;20296;-51
2022/03/12 09:41:30;;;;;;;11.13;6.80;;;;;;;;;;4415213;32;20725;-50
2022/03/12 09:43:56;;;;;;;16.83;10.10;;;;;;;;;;4401170;32;20253;-50
2022/03/12 09:46:21;;;;;;;16.97;8.97;;;;;;;;;;4428447;32;20243;-51
2022/03/12 09:48:47;;;;;;;19.30;7.47;;;;;;;;;;4419087;32;20280;-54
2022/03/12 09:51:14;;;;;;;13.03;8.03;;;;;;;;;;4414902;32;20581;-52
2022/03/12 09:53:39;;;;;;;17.57;9.23;;;;;;;;;;4415576;32;20241;-50
2022/03/12 09:56:05;;;;;;;18.13;8.63;;;;;;;;;;4415751;32;20635;-51
2022/03/12 09:58:31;;;;;;;14.47;7.83;;;;;;;;;;4416802;32;20457;-53
2022/03/12 10:00:56;;;;;;;12.77;7.10;;;;;;;;;;4415166;32;20359;-51
2022/03/12 10:03:22;;;;;;;19.70;9.07;;;;;;;;;;4402663;32;20287;-51
2022/03/12 10:05:47;;;;;;;16.67;9.53;;;;;;;;;;4415004;32;20528;-51
2022/03/12 10:08:13;;;;;;;24.47;11.47;;;;;;;;;;4414065;32;20256;-51
2022/03/12 10:10:38;;;;;;;16.50;9.20;;;;;;;;;;4408854;32;20748;-50
2022/03/12 10:13:04;;;;;;;16.47;10.43;;;;;;;;;;4406546;32;20641;-52
2022/03/12 10:15:30;;;;;;;13.77;6.57;;;;;;;;;;4415155;32;20706;-51
2022/03/12 10:17:56;;;;;;;28.30;14.33;;;;;;;;;;4407441;32;20225;-51
2022/03/12 10:20:21;;;;;;;11.27;6.63;;;;;;;;;;4408590;32;20754;-51
2022/03/12 10:22:47;;;;;;;11.40;6.97;;;;;;;;;;4414630;32;20225;-51
2022/03/12 10:25:14;;;;;;;22.40;7.20;;;;;;;;;;4414184;32;20656;-52
2022/03/12 10:27:40;;;;;;;16.77;9.70;;;;;;;;;;4416046;32;20285;-51
2022/03/12 10:30:07;;;;;;;17.27;8.47;;;;;;;;;;4417124;32;20267;-51
2022/03/12 10:32:41;;;;;;;35.03;20.23;;;;;;;;;;4417673;32;20641;-51
2022/03/12 10:35:09;;;;;;;24.13;13.53;;;;;;;;;;4419216;32;20625;-50
2022/03/12 10:37:35;;;;;;;23.97;13.00;;;;;;;;;;4419178;32;20288;-51
2022/03/12 10:40:03;;;;;;;11.23;7.53;;;;;;;;;;4419150;32;20689;-52
2022/03/12 10:42:30;;;;;;;19.17;8.07;;;;;;;;;;4418677;32;20295;-51
2022/03/12 10:45:07;;;;;;;19.87;10.90;;;;;;;;;;4414432;32;20231;-51
2022/03/12 10:47:36;;;;;;;19.90;10.93;;;;;;;;;;4411580;32;20221;-51
2022/03/12 10:50:11;;;;;;;20.47;12.47;;;;;;;;;;4411165;32;20675;-51
2022/03/12 10:52:42;;;;;;;18.40;10.73;;;;;;;;;;4412271;32;20280;-51
2022/03/12 10:55:18;;;;;;;21.57;12.27;;;;;;;;;;4419230;32;20264;-50
2022/03/12 10:58:05;;;;;;;10.90;6.80;;;;;;;;;;4396500;32;20292;-51
2022/03/12 11:00:46;;;;;;;13.30;7.50;;;;;;;;;;4416439;32;20563;-51
2022/03/12 11:03:15;;;;;;;25.23;11.77;;;;;;;;;;4417417;32;20599;-51
2022/03/12 11:05:43;;;;;;;19.47;10.67;;;;;;;;;;4417548;32;20228;-51
2022/03/12 11:08:16;;;;;;;15.67;9.17;;;;;;;;;;4418028;32;20277;-51
2022/03/12 11:11:14;;;;;;;11.30;4.60;;;;;;;;;;4417367;32;20304;-51
2022/03/12 11:13:48;;;;;;;10.90;5.97;;;;;;;;;;4417067;32;20834;-51
2022/03/12 11:16:24;;;;;;;12.63;7.20;;;;;;;;;;4415046;32;20303;-51
2022/03/12 11:18:52;;;;;;;14.80;6.93;;;;;;;;;;4411838;32;20533;-51
2022/03/12 11:21:40;;;;;;;6.13;4.60;;;;;;;;;;4415148;32;20345;-51
2022/03/12 11:24:15;;;;;;;8.30;4.70;;;;;;;;;;4412659;32;20310;-51
2022/03/12 11:26:47;;;;;;;8.07;5.83;;;;;;;;;;4404574;32;20301;-51
2022/03/12 11:29:13;;;;;;;19.77;12.30;;;;;;;;;;4408038;32;20256;-50
2022/03/12 11:31:42;;;;;;;31.37;14.03;;;;;;;;;;4417490;32;20925;-50
2022/03/12 11:34:23;;;;;;;25.77;12.23;;;;;;;;;;4415664;32;20238;-50
2022/03/12 11:36:59;;;;;;;18.90;10.53;;;;;;;;;;4415335;32;20820;-50
2022/03/12 11:39:47;;;;;;;17.17;8.00;;;;;;;;;;4411399;32;20774;-51
2022/03/12 11:42:14;;;;;;;6.33;5.10;;;;;;;;;;4416013;32;20432;-51
2022/03/12 11:44:41;;;;;;;15.03;8.60;;;;;;;;;;4417176;32;20669;-51
2022/03/12 11:47:07;;;;;;;8.70;5.33;;;;;;;;;;4401745;32;20253;-50
2022/03/12 11:49:32;;;;;;;30.53;12.23;;;;;;;;;;4415092;32;20635;-52
2022/03/12 11:51:59;;;;;;;22.23;11.90;;;;;;;;;;4414816;32;20253;-50
2022/03/12 11:54:24;;;;;;;9.40;5.47;;;;;;;;;;4413756;32;20653;-51
2022/03/12 11:56:51;;;;;;;7.27;3.77;;;;;;;;;;4404735;32;55957;-50
2022/03/12 11:59:17;;;;;;;28.63;16.50;;;;;;;;;;4368018;32;20644;-51
2022/03/12 12:01:43;;;;;;;8.23;4.77;;;;;;;;;;4380045;32;20309;-50
2022/03/12 12:04:09;;;;;;;6.17;4.30;;;;;;;;;;4386159;32;20336;-50
2022/03/12 12:06:34;;;;;;;7.17;4.00;;;;;;;;;;4371086;32;20321;-51
2022/03/12 12:09:02;;;;;;;14.27;6.43;;;;;;;;;;4379620;32;20379;-51
2022/03/12 12:11:31;;;;;;;10.20;5.53;;;;;;;;;;4383567;32;20558;-52
2022/03/12 12:13:58;;;;;;;12.83;7.33;;;;;;;;;;4374594;32;20265;-51
2022/03/12 12:16:25;;;;;;;14.00;8.20;;;;;;;;;;4373845;32;20260;-51
2022/03/12 12:18:51;;;;;;;11.17;6.83;;;;;;;;;;4380461;32;20283;-50
2022/03/12 12:21:18;;;;;;;11.00;5.43;;;;;;;;;;4380100;32;20710;-51
2022/03/12 12:23:43;;;;;;;10.00;5.97;;;;;;;;;;4378118;32;20582;-52
2022/03/12 12:26:11;;;;;;;5.47;3.70;;;;;;;;;;4387063;32;20733;-50
2022/03/12 12:28:50;;;;;;;7.23;4.07;;;;;;;;;;4383192;32;20218;-52
2022/03/12 12:31:24;;;;;;;9.07;4.83;;;;;;;;;;4372979;32;20321;-51
2022/03/12 12:33:51;;;;;;;9.30;6.60;;;;;;;;;;4359016;32;20681;-51
2022/03/12 12:36:18;;;;;;;6.57;4.27;;;;;;;;;;4372549;32;20202;-51
2022/03/12 12:39:10;;;;;;;21.93;14.37;;;;;;;;;;4372666;32;20214;-52
2022/03/12 12:42:01;;;;;;;12.43;8.13;;;;;;;;;;4373058;32;20579;-51
2022/03/12 12:44:42;;;;;;;6.70;4.23;;;;;;;;;;4378153;32;20282;-52
2022/03/12 12:47:18;;;;;;;7.67;4.90;;;;;;;;;;4372374;32;20234;-51
2022/03/12 12:49:54;;;;;;;14.03;7.63;;;;;;;;;;4372285;32;20236;-50
2022/03/12 12:52:21;;;;;;;9.40;5.63;;;;;;;;;;4371922;32;20753;-52
2022/03/12 12:54:46;;;;;;;15.20;6.70;;;;;;;;;;4369910;32;20261;-53
2022/03/12 12:57:13;;;;;;;16.40;8.90;;;;;;;;;;4369981;32;20238;-51
2022/03/12 12:59:44;;;;;;;18.83;10.50;;;;;;;;;;4370381;32;20253;-52
2022/03/12 13:02:10;;;;;;;7.47;5.50;;;;;;;;;;4370536;32;20234;-51
2022/03/12 13:04:47;;;;;;;6.23;3.73;;;;;;;;;;4369980;32;20301;-51
2022/03/12 13:07:24;;;;;;;7.47;4.43;;;;;;;;;;4370493;32;20706;-50
2022/03/12 13:09:58;;;;;;;5.97;3.37;;;;;;;;;;4385107;32;20252;-51
2022/03/12 13:12:38;;;;;;;8.83;4.77;;;;;;;;;;4387397;32;20267;-52
2022/03/12 13:15:04;;;;;;;16.50;11.03;;;;;;;;;;4384018;32;20256;-50
2022/03/12 13:17:33;;;;;;;10.83;6.00;;;;;;;;;;4386569;32;20594;-52
2022/03/12 13:19:59;;;;;;;12.37;5.87;;;;;;;;;;4384641;32;20210;-51
2022/03/12 13:22:41;;;;;;;6.53;4.37;;;;;;;;;;4386576;32;20245;-50
2022/03/12 13:25:07;;;;;;;8.70;4.53;;;;;;;;;;4380780;32;20233;-51
2022/03/12 13:27:41;;;;;;;17.60;9.53;;;;;;;;;;4386764;32;20271;-52
2022/03/12 13:30:20;;;;;;;22.53;12.03;;;;;;;;;;4373334;32;20592;-52
2022/03/12 13:32:51;;;;;;;9.53;6.40;;;;;;;;;;4358092;32;20242;-51
2022/03/12 13:35:22;;;;;;;5.13;3.57;;;;;;;;;;4386302;32;20551;-52
2022/03/12 13:37:48;;;;;;;18.87;9.07;;;;;;;;;;4386965;32;20221;-51
2022/03/12 13:40:16;;;;;;;5.83;3.97;;;;;;;;;;4386527;32;20201;-52
2022/03/12 13:43:05;;;;;;;22.00;11.90;;;;;;;;;;4387225;32;20759;-51
2022/03/12 13:45:32;;;;;;;16.10;9.73;;;;;;;;;;4387676;32;20190;-51
2022/03/12 13:47:59;;;;;;;22.87;12.83;;;;;;;;;;4386287;32;20273;-52
2022/03/12 13:50:27;;;;;;;42.67;21.37;;;;;;;;;;4358025;32;20246;-52
2022/03/12 13:52:57;;;;;;;20.27;9.37;;;;;;;;;;4371906;32;20221;-52
2022/03/12 13:55:24;;;;;;;11.77;6.70;;;;;;;;;;4385805;32;20618;-52
2022/03/12 13:57:50;;;;;;;8.00;5.60;;;;;;;;;;4385839;32;20271;-51
2022/03/12 14:00:19;;;;;;;7.10;5.40;;;;;;;;;;4383653;32;20264;-51
2022/03/12 14:02:55;;;;;;;11.07;7.43;;;;;;;;;;4371572;32;20303;-51
2022/03/12 14:05:25;;;;;;;13.47;6.30;;;;;;;;;;4377496;32;20702;-51
2022/03/12 14:07:51;;;;;;;13.77;8.73;;;;;;;;;;4383262;32;20324;-51
2022/03/12 14:10:17;;;;;;;21.83;10.90;;;;;;;;;;4385465;32;20559;-51
2022/03/12 14:12:44;;;;;;;9.13;6.03;;;;;;;;;;4387307;32;20218;-51
2022/03/12 14:15:14;;;;;;;9.17;6.53;;;;;;;;;;4386213;32;20214;-51
2022/03/12 14:17:40;;;;;;;13.20;7.97;;;;;;;;;;4372193;32;20230;-51
2022/03/12 14:20:09;;;;;;;29.60;13.63;;;;;;;;;;4383053;32;20372;-53
2022/03/12 14:22:37;;;;;;;10.47;6.73;;;;;;;;;;4371733;32;20241;-52
2022/03/12 14:25:07;;;;;;;13.13;7.40;;;;;;;;;;4379887;32;20335;-51
2022/03/12 14:27:36;;;;;;;14.13;8.93;;;;;;;;;;4386942;32;20229;-50
2022/03/12 14:30:03;;;;;;;46.10;20.80;;;;;;;;;;4378195;32;20316;-52
2022/03/12 14:32:29;;;;;;;41.23;18.67;;;;;;;;;;4378617;32;20222;-51
2022/03/12 14:34:56;;;;;;;203.50;97.93;;;;;;;;;;4384843;32;20273;-51